sensor_id;sensor_type;location;lat;lon;timestamp;temperature;humidity
35960;DHT22;22043;50.970;7.192;2022-11-02T00:00:50;13.20;99.90
35960;DHT22;22043;50.970;7.192;2022-11-02T00:03:15;13.30;99.90
35960;DHT22;22043;50.970;7.192;2022-11-02T00:05:41;13.30;99.90
35960;DHT22;22043;50.970;7.192;2022-11-02T00:08:07;13.30;99.90
35960;DHT22;22043;50.970;7.192;2022-11-02T00:10:32;13.30;99.90
35960;DHT22;22043;50.970;7.192;2022-11-02T00:12:58;13.30;99.90
35960;DHT22;22043;50.970;7.192;2022-11-02T00:15:27;13.30;99.90
35960;DHT22;22043;50.970;7.192;2022-11-02T00:17:56;13.30;99.90
35960;DHT22;22043;50.970;7.192;2022-11-02T00:20:23;13.30;99.90
35960;DHT22;22043;50.970;7.192;2022-11-02T00:22:52;13.30;99.90
35960;DHT22;22043;50.970;7.192;2022-11-02T00:25:20;13.30;99.90
35960;DHT22;22043;50.970;7.192;2022-11-02T00:27:47;13.30;99.90
35960;DHT22;22043;50.970;7.192;2022-11-02T00:30:13;13.40;99.90
35960;DHT22;22043;50.970;7.192;2022-11-02T00:32:39;13.40;99.90
35960;DHT22;22043;50.970;7.192;2022-11-02T00:35:05;13.40;99.90
35960;DHT22;22043;50.970;7.192;2022-11-02T00:37:31;13.40;99.90
35960;DHT22;22043;50.970;7.192;2022-11-02T00:39:57;13.40;99.90
35960;DHT22;22043;50.970;7.192;2022-11-02T00:42:22;13.50;99.90
35960;DHT22;22043;50.970;7.192;2022-11-02T00:44:48;13.40;99.90
35960;DHT22;22043;50.970;7.192;2022-11-02T00:47:14;13.50;99.90
35960;DHT22;22043;50.970;7.192;2022-11-02T00:49:39;13.50;99.90
35960;DHT22;22043;50.970;7.192;2022-11-02T00:52:07;13.50;99.90
35960;DHT22;22043;50.970;7.192;2022-11-02T00:54:32;13.50;99.90
35960;DHT22;22043;50.970;7.192;2022-11-02T00:56:58;13.50;99.90
35960;DHT22;22043;50.970;7.192;2022-11-02T00:59:24;13.40;99.90
35960;DHT22;22043;50.970;7.192;2022-11-02T01:01:49;13.40;99.90
35960;DHT22;22043;50.970;7.192;2022-11-02T01:04:16;13.40;99.90
35960;DHT22;22043;50.970;7.192;2022-11-02T01:06:42;13.40;99.90
35960;DHT22;22043;50.970;7.192;2022-11-02T01:09:08;13.40;99.90
35960;DHT22;22043;50.970;7.192;2022-11-02T01:11:34;13.40;99.90
35960;DHT22;22043;50.970;7.192;2022-11-02T01:14:00;13.40;99.90
35960;DHT22;22043;50.970;7.192;2022-11-02T01:16:26;13.40;99.90
35960;DHT22;22043;50.970;7.192;2022-11-02T01:18:53;13.40;99.90
35960;DHT22;22043;50.970;7.192;2022-11-02T01:21:19;13.40;99.90
35960;DHT22;22043;50.970;7.192;2022-11-02T01:23:45;13.40;99.90
35960;DHT22;22043;50.970;7.192;2022-11-02T01:26:11;13.40;99.90
35960;DHT22;22043;50.970;7.192;2022-11-02T01:28:38;13.40;99.90
35960;DHT22;22043;50.970;7.192;2022-11-02T01:31:05;13.40;99.90
35960;DHT22;22043;50.970;7.192;2022-11-02T01:33:31;13.40;99.90
35960;DHT22;22043;50.970;7.192;2022-11-02T01:35:56;13.40;99.90
35960;DHT22;22043;50.970;7.192;2022-11-02T01:38:22;13.40;99.90
35960;DHT22;22043;50.970;7.192;2022-11-02T01:40:48;13.40;99.90
35960;DHT22;22043;50.970;7.192;2022-11-02T01:43:23;13.40;99.90
35960;DHT22;22043;50.970;7.192;2022-11-02T01:45:55;13.40;99.90
35960;DHT22;22043;50.970;7.192;2022-11-02T01:48:31;13.40;99.90
35960;DHT22;22043;50.970;7.192;2022-11-02T01:50:59;13.40;99.90
35960;DHT22;22043;50.970;7.192;2022-11-02T01:53:28;13.40;99.90
35960;DHT22;22043;50.970;7.192;2022-11-02T01:55:54;13.40;99.90
35960;DHT22;22043;50.970;7.192;2022-11-02T01:58:20;13.40;99.90
35960;DHT22;22043;50.970;7.192;2022-11-02T02:00:45;13.40;99.90
35960;DHT22;22043;50.970;7.192;2022-11-02T02:03:16;13.40;99.90
35960;DHT22;22043;50.970;7.192;2022-11-02T02:06:07;13.40;99.90
35960;DHT22;22043;50.970;7.192;2022-11-02T02:08:37;13.30;99.90
35960;DHT22;22043;50.970;7.192;2022-11-02T02:11:40;13.30;99.90
35960;DHT22;22043;50.970;7.192;2022-11-02T02:14:17;13.20;99.90
35960;DHT22;22043;50.970;7.192;2022-11-02T02:20:10;13.10;99.90
35960;DHT22;22043;50.970;7.192;2022-11-02T02:26:19;13.00;99.90
35960;DHT22;22043;50.970;7.192;2022-11-02T02:29:10;13.00;99.90
35960;DHT22;22043;50.970;7.192;2022-11-02T02:37:16;12.90;99.90
35960;DHT22;22043;50.970;7.192;2022-11-02T02:39:59;12.90;99.90
35960;DHT22;22043;50.970;7.192;2022-11-02T02:42:35;12.90;99.90
35960;DHT22;22043;50.970;7.192;2022-11-02T02:47:57;12.80;99.90
35960;DHT22;22043;50.970;7.192;2022-11-02T02:50:28;12.90;99.90
35960;DHT22;22043;50.970;7.192;2022-11-02T02:52:57;12.80;99.90
35960;DHT22;22043;50.970;7.192;2022-11-02T02:55:28;12.90;99.90
35960;DHT22;22043;50.970;7.192;2022-11-02T02:57:56;12.80;99.90
35960;DHT22;22043;50.970;7.192;2022-11-02T03:00:24;12.80;99.90
35960;DHT22;22043;50.970;7.192;2022-11-02T03:02:50;12.80;99.90
35960;DHT22;22043;50.970;7.192;2022-11-02T03:05:36;12.80;99.90
35960;DHT22;22043;50.970;7.192;2022-11-02T03:08:14;12.80;99.90
35960;DHT22;22043;50.970;7.192;2022-11-02T03:11:12;12.80;99.90
35960;DHT22;22043;50.970;7.192;2022-11-02T03:16:49;12.80;99.90
35960;DHT22;22043;50.970;7.192;2022-11-02T03:22:15;12.70;99.90
35960;DHT22;22043;50.970;7.192;2022-11-02T03:30:19;12.80;99.90
35960;DHT22;22043;50.970;7.192;2022-11-02T03:36:34;12.80;99.90
35960;DHT22;22043;50.970;7.192;2022-11-02T03:38:50;12.90;99.90
35960;DHT22;22043;50.970;7.192;2022-11-02T03:41:19;12.90;99.90
35960;DHT22;22043;50.970;7.192;2022-11-02T03:43:46;13.00;99.90
35960;DHT22;22043;50.970;7.192;2022-11-02T03:46:14;13.00;99.90
35960;DHT22;22043;50.970;7.192;2022-11-02T03:48:45;13.00;99.90
35960;DHT22;22043;50.970;7.192;2022-11-02T03:51:16;13.00;99.90
35960;DHT22;22043;50.970;7.192;2022-11-02T03:53:50;13.10;99.90
35960;DHT22;22043;50.970;7.192;2022-11-02T03:56:34;13.10;99.90
35960;DHT22;22043;50.970;7.192;2022-11-02T03:59:02;13.10;99.90
35960;DHT22;22043;50.970;7.192;2022-11-02T04:01:29;13.10;99.90
35960;DHT22;22043;50.970;7.192;2022-11-02T04:03:56;13.10;99.90
35960;DHT22;22043;50.970;7.192;2022-11-02T04:06:22;13.10;99.90
35960;DHT22;22043;50.970;7.192;2022-11-02T04:08:49;13.10;99.90
35960;DHT22;22043;50.970;7.192;2022-11-02T04:11:18;13.10;99.90
35960;DHT22;22043;50.970;7.192;2022-11-02T04:14:07;13.00;99.90
35960;DHT22;22043;50.970;7.192;2022-11-02T04:16:51;13.00;99.90
35960;DHT22;22043;50.970;7.192;2022-11-02T04:19:39;13.00;99.90
35960;DHT22;22043;50.970;7.192;2022-11-02T04:22:07;12.90;99.90
35960;DHT22;22043;50.970;7.192;2022-11-02T04:24:56;12.90;99.90
35960;DHT22;22043;50.970;7.192;2022-11-02T04:27:50;12.80;99.90
35960;DHT22;22043;50.970;7.192;2022-11-02T04:30:19;12.80;99.90
35960;DHT22;22043;50.970;7.192;2022-11-02T04:32:46;12.80;99.90
35960;DHT22;22043;50.970;7.192;2022-11-02T04:35:37;12.80;99.90
35960;DHT22;22043;50.970;7.192;2022-11-02T04:38:03;12.80;99.90
35960;DHT22;22043;50.970;7.192;2022-11-02T04:40:48;12.90;99.90
35960;DHT22;22043;50.970;7.192;2022-11-02T04:43:34;12.90;99.90
35960;DHT22;22043;50.970;7.192;2022-11-02T04:46:00;12.90;99.90
35960;DHT22;22043;50.970;7.192;2022-11-02T04:48:26;12.90;99.90
35960;DHT22;22043;50.970;7.192;2022-11-02T04:50:53;12.90;99.90
35960;DHT22;22043;50.970;7.192;2022-11-02T04:53:18;12.90;99.90
35960;DHT22;22043;50.970;7.192;2022-11-02T04:55:45;12.90;99.90
35960;DHT22;22043;50.970;7.192;2022-11-02T04:58:11;12.80;99.90
35960;DHT22;22043;50.970;7.192;2022-11-02T05:00:38;12.80;99.90
35960;DHT22;22043;50.970;7.192;2022-11-02T05:03:05;12.70;99.90
35960;DHT22;22043;50.970;7.192;2022-11-02T05:05:30;12.70;99.90
35960;DHT22;22043;50.970;7.192;2022-11-02T05:07:58;12.70;99.90
35960;DHT22;22043;50.970;7.192;2022-11-02T05:10:24;12.70;99.90
35960;DHT22;22043;50.970;7.192;2022-11-02T05:12:56;12.60;99.90
35960;DHT22;22043;50.970;7.192;2022-11-02T05:15:21;12.60;99.90
35960;DHT22;22043;50.970;7.192;2022-11-02T05:17:47;12.60;99.90
35960;DHT22;22043;50.970;7.192;2022-11-02T05:20:13;12.60;99.90
35960;DHT22;22043;50.970;7.192;2022-11-02T05:22:42;12.50;99.90
35960;DHT22;22043;50.970;7.192;2022-11-02T05:25:09;12.50;99.90
35960;DHT22;22043;50.970;7.192;2022-11-02T05:27:36;12.50;99.90
35960;DHT22;22043;50.970;7.192;2022-11-02T05:30:03;12.50;99.90
35960;DHT22;22043;50.970;7.192;2022-11-02T05:32:28;12.40;99.90
35960;DHT22;22043;50.970;7.192;2022-11-02T05:34:54;12.50;99.90
35960;DHT22;22043;50.970;7.192;2022-11-02T05:37:20;12.40;99.90
35960;DHT22;22043;50.970;7.192;2022-11-02T05:39:46;12.40;99.90
35960;DHT22;22043;50.970;7.192;2022-11-02T05:42:12;12.40;99.90
35960;DHT22;22043;50.970;7.192;2022-11-02T05:44:37;12.30;99.90
35960;DHT22;22043;50.970;7.192;2022-11-02T05:47:03;12.40;99.90
35960;DHT22;22043;50.970;7.192;2022-11-02T05:49:29;12.30;99.90
35960;DHT22;22043;50.970;7.192;2022-11-02T05:51:55;12.30;99.90
35960;DHT22;22043;50.970;7.192;2022-11-02T05:54:21;12.30;99.90
35960;DHT22;22043;50.970;7.192;2022-11-02T05:56:46;12.30;99.90
35960;DHT22;22043;50.970;7.192;2022-11-02T05:59:12;12.30;99.90
35960;DHT22;22043;50.970;7.192;2022-11-02T06:01:38;12.30;99.90
35960;DHT22;22043;50.970;7.192;2022-11-02T06:04:04;12.30;99.90
35960;DHT22;22043;50.970;7.192;2022-11-02T06:06:30;12.30;99.90
35960;DHT22;22043;50.970;7.192;2022-11-02T06:08:56;12.30;99.90
35960;DHT22;22043;50.970;7.192;2022-11-02T06:11:21;12.20;99.90
35960;DHT22;22043;50.970;7.192;2022-11-02T06:13:49;12.20;99.90
35960;DHT22;22043;50.970;7.192;2022-11-02T06:16:15;12.30;99.90
35960;DHT22;22043;50.970;7.192;2022-11-02T06:18:41;12.30;99.90
35960;DHT22;22043;50.970;7.192;2022-11-02T06:21:07;12.30;99.90
35960;DHT22;22043;50.970;7.192;2022-11-02T06:23:33;12.40;99.90
35960;DHT22;22043;50.970;7.192;2022-11-02T06:26:00;12.40;99.90
35960;DHT22;22043;50.970;7.192;2022-11-02T06:28:26;12.40;99.90
35960;DHT22;22043;50.970;7.192;2022-11-02T06:30:53;12.50;99.90
35960;DHT22;22043;50.970;7.192;2022-11-02T06:33:19;12.50;99.90
35960;DHT22;22043;50.970;7.192;2022-11-02T06:35:47;12.50;99.90
35960;DHT22;22043;50.970;7.192;2022-11-02T06:38:13;12.60;99.90
35960;DHT22;22043;50.970;7.192;2022-11-02T06:40:39;12.50;99.90
35960;DHT22;22043;50.970;7.192;2022-11-02T06:43:04;12.60;99.90
35960;DHT22;22043;50.970;7.192;2022-11-02T06:45:30;12.60;99.90
35960;DHT22;22043;50.970;7.192;2022-11-02T06:47:56;12.60;99.90
35960;DHT22;22043;50.970;7.192;2022-11-02T06:50:21;12.60;99.90
35960;DHT22;22043;50.970;7.192;2022-11-02T06:52:49;12.60;99.90
35960;DHT22;22043;50.970;7.192;2022-11-02T06:55:16;12.60;99.90
35960;DHT22;22043;50.970;7.192;2022-11-02T06:57:44;12.60;99.90
35960;DHT22;22043;50.970;7.192;2022-11-02T07:00:14;12.60;99.90
35960;DHT22;22043;50.970;7.192;2022-11-02T07:02:44;12.60;99.90
35960;DHT22;22043;50.970;7.192;2022-11-02T07:05:09;12.60;99.90
35960;DHT22;22043;50.970;7.192;2022-11-02T07:07:35;12.50;99.90
35960;DHT22;22043;50.970;7.192;2022-11-02T07:10:01;12.50;99.90
35960;DHT22;22043;50.970;7.192;2022-11-02T07:12:26;12.50;99.90
35960;DHT22;22043;50.970;7.192;2022-11-02T07:14:52;12.50;99.90
35960;DHT22;22043;50.970;7.192;2022-11-02T07:17:17;12.50;99.90
35960;DHT22;22043;50.970;7.192;2022-11-02T07:19:43;12.50;99.90
35960;DHT22;22043;50.970;7.192;2022-11-02T07:22:09;12.50;99.90
35960;DHT22;22043;50.970;7.192;2022-11-02T07:24:34;12.40;99.90
35960;DHT22;22043;50.970;7.192;2022-11-02T07:27:00;12.50;99.90
35960;DHT22;22043;50.970;7.192;2022-11-02T07:29:26;12.50;99.90
35960;DHT22;22043;50.970;7.192;2022-11-02T07:31:51;12.50;99.90
35960;DHT22;22043;50.970;7.192;2022-11-02T07:34:17;12.50;99.90
35960;DHT22;22043;50.970;7.192;2022-11-02T07:36:42;12.60;99.90
35960;DHT22;22043;50.970;7.192;2022-11-02T07:39:08;12.50;99.90
35960;DHT22;22043;50.970;7.192;2022-11-02T07:41:34;12.60;99.90
35960;DHT22;22043;50.970;7.192;2022-11-02T07:44:00;12.60;99.90
35960;DHT22;22043;50.970;7.192;2022-11-02T07:46:32;12.60;99.90
35960;DHT22;22043;50.970;7.192;2022-11-02T07:48:58;12.70;99.90
35960;DHT22;22043;50.970;7.192;2022-11-02T07:51:23;12.70;99.90
35960;DHT22;22043;50.970;7.192;2022-11-02T07:53:49;12.70;99.90
35960;DHT22;22043;50.970;7.192;2022-11-02T07:56:15;12.70;99.90
35960;DHT22;22043;50.970;7.192;2022-11-02T07:58:40;12.80;99.90
35960;DHT22;22043;50.970;7.192;2022-11-02T08:01:06;12.80;99.90
35960;DHT22;22043;50.970;7.192;2022-11-02T08:03:31;12.90;99.90
35960;DHT22;22043;50.970;7.192;2022-11-02T08:06:00;12.90;99.90
35960;DHT22;22043;50.970;7.192;2022-11-02T08:08:27;12.90;99.90
35960;DHT22;22043;50.970;7.192;2022-11-02T08:10:53;12.90;99.90
35960;DHT22;22043;50.970;7.192;2022-11-02T08:13:21;12.90;99.90
35960;DHT22;22043;50.970;7.192;2022-11-02T08:15:52;13.00;99.90
35960;DHT22;22043;50.970;7.192;2022-11-02T08:18:20;13.00;99.90
35960;DHT22;22043;50.970;7.192;2022-11-02T08:20:47;13.00;99.90
35960;DHT22;22043;50.970;7.192;2022-11-02T08:23:14;13.00;99.90
35960;DHT22;22043;50.970;7.192;2022-11-02T08:25:40;13.00;99.90
35960;DHT22;22043;50.970;7.192;2022-11-02T08:28:09;13.10;99.90
35960;DHT22;22043;50.970;7.192;2022-11-02T08:30:36;13.10;99.90
35960;DHT22;22043;50.970;7.192;2022-11-02T08:33:07;13.20;99.90
35960;DHT22;22043;50.970;7.192;2022-11-02T08:35:34;13.20;99.90
35960;DHT22;22043;50.970;7.192;2022-11-02T08:38:02;13.30;99.90
35960;DHT22;22043;50.970;7.192;2022-11-02T08:40:29;13.30;99.90
35960;DHT22;22043;50.970;7.192;2022-11-02T08:43:03;13.30;99.90
35960;DHT22;22043;50.970;7.192;2022-11-02T08:45:30;13.40;99.90
35960;DHT22;22043;50.970;7.192;2022-11-02T08:47:55;13.40;99.90
35960;DHT22;22043;50.970;7.192;2022-11-02T08:50:22;13.50;99.90
35960;DHT22;22043;50.970;7.192;2022-11-02T08:52:48;13.50;99.90
35960;DHT22;22043;50.970;7.192;2022-11-02T08:55:14;13.50;99.90
35960;DHT22;22043;50.970;7.192;2022-11-02T08:57:50;13.60;99.90
35960;DHT22;22043;50.970;7.192;2022-11-02T09:00:20;13.60;99.90
35960;DHT22;22043;50.970;7.192;2022-11-02T09:03:12;13.70;99.90
35960;DHT22;22043;50.970;7.192;2022-11-02T09:05:43;13.70;99.90
35960;DHT22;22043;50.970;7.192;2022-11-02T09:08:14;13.70;99.90
35960;DHT22;22043;50.970;7.192;2022-11-02T09:10:41;13.70;99.90
35960;DHT22;22043;50.970;7.192;2022-11-02T09:13:10;13.70;99.90
35960;DHT22;22043;50.970;7.192;2022-11-02T09:15:36;13.70;99.90
35960;DHT22;22043;50.970;7.192;2022-11-02T09:18:04;13.80;99.90
35960;DHT22;22043;50.970;7.192;2022-11-02T09:20:30;13.80;99.90
35960;DHT22;22043;50.970;7.192;2022-11-02T09:22:55;13.80;99.90
35960;DHT22;22043;50.970;7.192;2022-11-02T09:25:21;13.80;99.90
35960;DHT22;22043;50.970;7.192;2022-11-02T09:27:54;13.90;99.90
35960;DHT22;22043;50.970;7.192;2022-11-02T09:30:20;13.90;99.90
35960;DHT22;22043;50.970;7.192;2022-11-02T09:35:19;13.90;99.90
35960;DHT22;22043;50.970;7.192;2022-11-02T09:37:44;13.90;99.90
35960;DHT22;22043;50.970;7.192;2022-11-02T09:40:11;13.90;99.90
35960;DHT22;22043;50.970;7.192;2022-11-02T09:42:48;13.90;99.90
35960;DHT22;22043;50.970;7.192;2022-11-02T09:45:20;13.90;99.90
35960;DHT22;22043;50.970;7.192;2022-11-02T09:48:06;13.90;99.90
35960;DHT22;22043;50.970;7.192;2022-11-02T09:51:03;13.90;99.90
35960;DHT22;22043;50.970;7.192;2022-11-02T09:56:06;13.80;99.90
35960;DHT22;22043;50.970;7.192;2022-11-02T09:58:36;13.80;99.90
35960;DHT22;22043;50.970;7.192;2022-11-02T10:01:36;13.90;99.90
35960;DHT22;22043;50.970;7.192;2022-11-02T10:04:25;13.80;99.90
35960;DHT22;22043;50.970;7.192;2022-11-02T10:15:16;13.80;99.90
35960;DHT22;22043;50.970;7.192;2022-11-02T10:17:45;13.70;99.90
35960;DHT22;22043;50.970;7.192;2022-11-02T10:20:38;13.70;99.90
35960;DHT22;22043;50.970;7.192;2022-11-02T10:23:14;13.70;99.90
35960;DHT22;22043;50.970;7.192;2022-11-02T10:25:42;13.70;99.90
35960;DHT22;22043;50.970;7.192;2022-11-02T10:28:16;13.70;99.90
35960;DHT22;22043;50.970;7.192;2022-11-02T10:30:43;13.70;99.90
35960;DHT22;22043;50.970;7.192;2022-11-02T10:33:15;13.70;99.90
35960;DHT22;22043;50.970;7.192;2022-11-02T10:38:53;13.70;99.90
35960;DHT22;22043;50.970;7.192;2022-11-02T10:44:31;13.70;99.90
35960;DHT22;22043;50.970;7.192;2022-11-02T10:47:19;13.70;99.90
35960;DHT22;22043;50.970;7.192;2022-11-02T10:52:45;13.70;99.90
35960;DHT22;22043;50.970;7.192;2022-11-02T10:58:11;13.70;99.90
35960;DHT22;22043;50.970;7.192;2022-11-02T11:00:41;13.70;99.90
35960;DHT22;22043;50.970;7.192;2022-11-02T11:03:12;13.70;99.90
35960;DHT22;22043;50.970;7.192;2022-11-02T11:05:54;13.70;99.90
35960;DHT22;22043;50.970;7.192;2022-11-02T11:08:35;13.80;99.90
35960;DHT22;22043;50.970;7.192;2022-11-02T11:11:21;13.80;99.90
35960;DHT22;22043;50.970;7.192;2022-11-02T11:16:30;13.80;99.90
35960;DHT22;22043;50.970;7.192;2022-11-02T11:18:58;13.80;99.90
35960;DHT22;22043;50.970;7.192;2022-11-02T11:21:37;13.80;99.90
35960;DHT22;22043;50.970;7.192;2022-11-02T11:26:44;13.80;99.90
35960;DHT22;22043;50.970;7.192;2022-11-02T11:29:21;13.80;99.90
35960;DHT22;22043;50.970;7.192;2022-11-02T11:31:47;13.90;99.90
35960;DHT22;22043;50.970;7.192;2022-11-02T11:34:24;13.90;99.90
35960;DHT22;22043;50.970;7.192;2022-11-02T11:36:50;14.00;99.90
35960;DHT22;22043;50.970;7.192;2022-11-02T11:39:25;14.00;99.90
35960;DHT22;22043;50.970;7.192;2022-11-02T11:41:52;14.00;99.90
35960;DHT22;22043;50.970;7.192;2022-11-02T11:44:18;14.00;99.90
35960;DHT22;22043;50.970;7.192;2022-11-02T11:46:55;14.10;99.90
35960;DHT22;22043;50.970;7.192;2022-11-02T11:49:23;14.00;99.90
35960;DHT22;22043;50.970;7.192;2022-11-02T11:51:50;14.00;99.90
35960;DHT22;22043;50.970;7.192;2022-11-02T11:54:29;14.10;99.90
35960;DHT22;22043;50.970;7.192;2022-11-02T11:56:55;14.00;99.90
35960;DHT22;22043;50.970;7.192;2022-11-02T12:02:31;14.00;99.90
35960;DHT22;22043;50.970;7.192;2022-11-02T12:04:59;14.00;99.90
35960;DHT22;22043;50.970;7.192;2022-11-02T12:12:44;13.90;99.90
35960;DHT22;22043;50.970;7.192;2022-11-02T12:29:31;14.20;99.90
35960;DHT22;22043;50.970;7.192;2022-11-02T12:42:39;14.50;99.90
35960;DHT22;22043;50.970;7.192;2022-11-02T12:45:30;14.50;99.90
35960;DHT22;22043;50.970;7.192;2022-11-02T12:48:02;14.50;99.90
35960;DHT22;22043;50.970;7.192;2022-11-02T12:53:32;14.40;99.90
35960;DHT22;22043;50.970;7.192;2022-11-02T12:56:01;14.40;99.90
35960;DHT22;22043;50.970;7.192;2022-11-02T12:58:31;14.40;99.90
35960;DHT22;22043;50.970;7.192;2022-11-02T13:01:17;14.40;99.90
35960;DHT22;22043;50.970;7.192;2022-11-02T13:04:39;14.40;99.90
35960;DHT22;22043;50.970;7.192;2022-11-02T13:06:50;14.30;99.90
35960;DHT22;22043;50.970;7.192;2022-11-02T13:09:35;14.30;99.90
35960;DHT22;22043;50.970;7.192;2022-11-02T13:12:07;14.40;99.90
35960;DHT22;22043;50.970;7.192;2022-11-02T13:14:47;14.30;99.90
35960;DHT22;22043;50.970;7.192;2022-11-02T13:17:39;14.40;99.90
35960;DHT22;22043;50.970;7.192;2022-11-02T13:20:32;14.40;99.90
35960;DHT22;22043;50.970;7.192;2022-11-02T13:25:45;14.40;99.90
35960;DHT22;22043;50.970;7.192;2022-11-02T13:28:23;14.50;99.90
35960;DHT22;22043;50.970;7.192;2022-11-02T13:30:51;14.50;99.90
35960;DHT22;22043;50.970;7.192;2022-11-02T13:33:47;14.50;99.90
35960;DHT22;22043;50.970;7.192;2022-11-02T13:36:14;14.50;99.90
35960;DHT22;22043;50.970;7.192;2022-11-02T13:39:11;14.60;99.90
35960;DHT22;22043;50.970;7.192;2022-11-02T13:49:50;14.70;99.90
35960;DHT22;22043;50.970;7.192;2022-11-02T13:52:39;14.70;99.90
35960;DHT22;22043;50.970;7.192;2022-11-02T13:55:08;14.80;99.90
35960;DHT22;22043;50.970;7.192;2022-11-02T13:57:41;14.80;99.90
35960;DHT22;22043;50.970;7.192;2022-11-02T14:05:31;14.80;99.90
35960;DHT22;22043;50.970;7.192;2022-11-02T14:08:07;14.70;99.90
35960;DHT22;22043;50.970;7.192;2022-11-02T14:10:39;14.60;99.90
35960;DHT22;22043;50.970;7.192;2022-11-02T14:13:11;14.60;99.90
35960;DHT22;22043;50.970;7.192;2022-11-02T14:15:40;14.50;99.90
35960;DHT22;22043;50.970;7.192;2022-11-02T14:18:13;14.40;99.90
35960;DHT22;22043;50.970;7.192;2022-11-02T14:20:46;14.40;99.90
35960;DHT22;22043;50.970;7.192;2022-11-02T14:25:56;14.30;99.90
35960;DHT22;22043;50.970;7.192;2022-11-02T14:47:47;14.10;99.90
35960;DHT22;22043;50.970;7.192;2022-11-02T14:50:18;14.10;99.90
35960;DHT22;22043;50.970;7.192;2022-11-02T14:53:04;14.10;99.90
35960;DHT22;22043;50.970;7.192;2022-11-02T14:55:33;14.00;99.90
35960;DHT22;22043;50.970;7.192;2022-11-02T14:58:17;14.00;99.90
35960;DHT22;22043;50.970;7.192;2022-11-02T15:08:31;13.90;99.90
35960;DHT22;22043;50.970;7.192;2022-11-02T15:10:57;13.90;99.90
35960;DHT22;22043;50.970;7.192;2022-11-02T15:13:45;13.90;99.90
35960;DHT22;22043;50.970;7.192;2022-11-02T15:18:37;13.80;99.90
35960;DHT22;22043;50.970;7.192;2022-11-02T15:23:58;13.70;99.90
35960;DHT22;22043;50.970;7.192;2022-11-02T15:27:00;13.70;99.90
35960;DHT22;22043;50.970;7.192;2022-11-02T15:29:37;13.60;99.90
35960;DHT22;22043;50.970;7.192;2022-11-02T15:32:10;13.60;99.90
35960;DHT22;22043;50.970;7.192;2022-11-02T15:34:47;13.50;99.90
35960;DHT22;22043;50.970;7.192;2022-11-02T15:37:23;13.50;99.90
35960;DHT22;22043;50.970;7.192;2022-11-02T15:39:51;13.40;99.90
35960;DHT22;22043;50.970;7.192;2022-11-02T15:42:39;13.40;99.90
35960;DHT22;22043;50.970;7.192;2022-11-02T15:48:25;13.40;99.90
35960;DHT22;22043;50.970;7.192;2022-11-02T16:02:20;13.20;99.90
35960;DHT22;22043;50.970;7.192;2022-11-02T16:04:47;13.20;99.90
35960;DHT22;22043;50.970;7.192;2022-11-02T16:07:16;13.20;99.90
35960;DHT22;22043;50.970;7.192;2022-11-02T16:09:42;13.20;99.90
35960;DHT22;22043;50.970;7.192;2022-11-02T16:12:22;13.20;99.90
35960;DHT22;22043;50.970;7.192;2022-11-02T16:14:54;13.10;99.90
35960;DHT22;22043;50.970;7.192;2022-11-02T16:17:24;13.10;99.90
35960;DHT22;22043;50.970;7.192;2022-11-02T16:19:51;13.00;99.90
35960;DHT22;22043;50.970;7.192;2022-11-02T16:22:23;13.00;99.90
35960;DHT22;22043;50.970;7.192;2022-11-02T16:24:51;13.00;99.90
35960;DHT22;22043;50.970;7.192;2022-11-02T16:27:17;13.00;99.90
35960;DHT22;22043;50.970;7.192;2022-11-02T16:29:44;13.00;99.90
35960;DHT22;22043;50.970;7.192;2022-11-02T16:32:10;13.00;99.90
35960;DHT22;22043;50.970;7.192;2022-11-02T16:34:36;13.00;99.90
35960;DHT22;22043;50.970;7.192;2022-11-02T16:37:03;13.00;99.90
35960;DHT22;22043;50.970;7.192;2022-11-02T16:39:34;13.00;99.90
35960;DHT22;22043;50.970;7.192;2022-11-02T16:42:06;13.00;99.90
35960;DHT22;22043;50.970;7.192;2022-11-02T16:44:34;13.00;99.90
35960;DHT22;22043;50.970;7.192;2022-11-02T16:49:33;13.00;99.90
35960;DHT22;22043;50.970;7.192;2022-11-02T16:52:21;13.00;99.90
35960;DHT22;22043;50.970;7.192;2022-11-02T16:54:47;13.00;99.90
35960;DHT22;22043;50.970;7.192;2022-11-02T16:59:53;13.00;99.90
35960;DHT22;22043;50.970;7.192;2022-11-02T17:02:29;13.00;99.90
35960;DHT22;22043;50.970;7.192;2022-11-02T17:04:56;13.00;99.90
35960;DHT22;22043;50.970;7.192;2022-11-02T17:07:32;12.90;99.90
35960;DHT22;22043;50.970;7.192;2022-11-02T17:10:01;12.90;99.90
35960;DHT22;22043;50.970;7.192;2022-11-02T17:12:33;12.90;99.90
35960;DHT22;22043;50.970;7.192;2022-11-02T17:15:02;12.90;99.90
35960;DHT22;22043;50.970;7.192;2022-11-02T17:17:34;12.90;99.90
35960;DHT22;22043;50.970;7.192;2022-11-02T17:25:24;12.80;99.90
35960;DHT22;22043;50.970;7.192;2022-11-02T17:27:51;12.80;99.90
35960;DHT22;22043;50.970;7.192;2022-11-02T17:33:06;12.80;99.90
35960;DHT22;22043;50.970;7.192;2022-11-02T17:35:32;12.70;99.90
35960;DHT22;22043;50.970;7.192;2022-11-02T17:37:57;12.70;99.90
35960;DHT22;22043;50.970;7.192;2022-11-02T17:40:23;12.70;99.90
35960;DHT22;22043;50.970;7.192;2022-11-02T17:42:49;12.60;99.90
35960;DHT22;22043;50.970;7.192;2022-11-02T17:47:51;12.60;99.90
35960;DHT22;22043;50.970;7.192;2022-11-02T17:50:18;12.50;99.90
35960;DHT22;22043;50.970;7.192;2022-11-02T17:52:44;12.50;99.90
35960;DHT22;22043;50.970;7.192;2022-11-02T17:55:16;12.50;99.90
35960;DHT22;22043;50.970;7.192;2022-11-02T17:57:43;12.40;99.90
35960;DHT22;22043;50.970;7.192;2022-11-02T18:00:08;12.40;99.90
35960;DHT22;22043;50.970;7.192;2022-11-02T18:02:40;12.40;99.90
35960;DHT22;22043;50.970;7.192;2022-11-02T18:05:26;12.40;99.90
35960;DHT22;22043;50.970;7.192;2022-11-02T18:07:53;12.40;99.90
35960;DHT22;22043;50.970;7.192;2022-11-02T18:10:21;12.30;99.90
35960;DHT22;22043;50.970;7.192;2022-11-02T18:12:47;12.20;99.90
35960;DHT22;22043;50.970;7.192;2022-11-02T18:15:18;12.30;99.90
35960;DHT22;22043;50.970;7.192;2022-11-02T18:17:45;12.20;99.90
35960;DHT22;22043;50.970;7.192;2022-11-02T18:20:11;12.20;99.90
35960;DHT22;22043;50.970;7.192;2022-11-02T18:22:38;12.30;99.90
35960;DHT22;22043;50.970;7.192;2022-11-02T18:25:08;12.20;99.90
35960;DHT22;22043;50.970;7.192;2022-11-02T18:27:37;12.20;99.90
35960;DHT22;22043;50.970;7.192;2022-11-02T18:30:04;12.20;99.90
35960;DHT22;22043;50.970;7.192;2022-11-02T18:32:30;12.20;99.90
35960;DHT22;22043;50.970;7.192;2022-11-02T18:34:56;12.20;99.90
35960;DHT22;22043;50.970;7.192;2022-11-02T18:37:22;12.20;99.90
35960;DHT22;22043;50.970;7.192;2022-11-02T18:39:48;12.20;99.90
35960;DHT22;22043;50.970;7.192;2022-11-02T18:42:14;12.20;99.90
35960;DHT22;22043;50.970;7.192;2022-11-02T18:44:39;12.20;99.90
35960;DHT22;22043;50.970;7.192;2022-11-02T18:47:05;12.10;99.90
35960;DHT22;22043;50.970;7.192;2022-11-02T18:49:31;12.20;99.90